createdAt,value
2023-02-03T00:00:38.779Z,7.70
2023-02-03T00:02:11.513Z,7.70
2023-02-03T00:03:44.265Z,7.70
2023-02-03T00:05:18.496Z,7.80
2023-02-03T00:06:51.846Z,7.80
2023-02-03T00:08:24.822Z,7.80
2023-02-03T00:09:58.429Z,7.80
2023-02-03T00:11:31.704Z,7.70
2023-02-03T00:13:04.400Z,7.70
2023-02-03T00:14:37.854Z,7.70
2023-02-03T00:16:10.893Z,7.80
2023-02-03T00:17:43.827Z,7.80
2023-02-03T00:19:17.640Z,7.80
2023-02-03T00:20:51.815Z,7.80
2023-02-03T00:22:24.558Z,7.80
2023-02-03T00:23:57.262Z,7.80
2023-02-03T00:25:30.059Z,7.80
2023-02-03T00:27:02.746Z,7.80
2023-02-03T00:28:34.486Z,7.80
2023-02-03T00:30:07.874Z,7.80
2023-02-03T00:31:40.616Z,7.80
2023-02-03T00:33:13.348Z,7.80
2023-02-03T00:34:46.091Z,7.80
2023-02-03T00:36:20.132Z,7.70
2023-02-03T00:37:53.620Z,7.80
2023-02-03T00:39:26.337Z,7.80
2023-02-03T00:40:58.065Z,7.70
2023-02-03T00:42:30.732Z,7.70
2023-02-03T00:44:02.451Z,7.70
2023-02-03T00:45:35.221Z,7.70
2023-02-03T00:47:08.010Z,7.70
2023-02-03T00:48:40.878Z,7.70
2023-02-03T00:50:13.662Z,7.70
2023-02-03T00:51:47.726Z,7.70
2023-02-03T00:53:19.450Z,7.70
2023-02-03T00:54:52.163Z,7.70
2023-02-03T00:56:23.905Z,7.70
2023-02-03T00:57:56.612Z,7.70
2023-02-03T00:59:29.309Z,7.70
2023-02-03T01:01:01.078Z,7.70
2023-02-03T01:02:33.872Z,7.70
2023-02-03T01:04:06.832Z,7.70
2023-02-03T01:05:39.524Z,7.70
2023-02-03T01:07:13.784Z,7.70
2023-02-03T01:08:47.494Z,7.70
2023-02-03T01:10:20.351Z,7.70
2023-02-03T01:11:53.191Z,7.70
2023-02-03T01:13:24.969Z,7.70
2023-02-03T01:14:57.975Z,7.70
2023-02-03T01:16:35.799Z,7.70
2023-02-03T01:18:08.654Z,7.70
2023-02-03T01:19:41.423Z,7.70
2023-02-03T01:21:15.872Z,7.70
2023-02-03T01:22:49.951Z,7.70
2023-02-03T01:24:22.638Z,7.70
2023-02-03T01:25:55.330Z,7.70
2023-02-03T01:27:28.063Z,7.70
2023-02-03T01:29:00.640Z,7.70
2023-02-03T01:30:33.412Z,7.70
2023-02-03T01:32:06.249Z,7.70
2023-02-03T01:33:40.741Z,7.80
2023-02-03T01:35:13.433Z,7.80
2023-02-03T01:36:46.743Z,7.80
2023-02-03T01:38:20.956Z,7.80
2023-02-03T01:39:53.651Z,7.80
2023-02-03T01:41:29.244Z,7.80
2023-02-03T01:43:01.920Z,7.80
2023-02-03T01:44:47.480Z,7.80
2023-02-03T01:46:28.620Z,7.80
2023-02-03T01:48:01.613Z,7.80
2023-02-03T01:49:36.652Z,7.90
2023-02-03T01:51:09.815Z,7.90
2023-02-03T01:52:44.616Z,7.90
2023-02-03T01:54:22.868Z,7.90
2023-02-03T01:55:55.670Z,7.90
2023-02-03T01:57:32.853Z,7.90
2023-02-03T01:59:05.985Z,7.90
2023-02-03T02:00:38.872Z,7.80
2023-02-03T02:02:12.512Z,7.80
2023-02-03T02:03:49.788Z,7.80
2023-02-03T02:05:28.900Z,7.90
2023-02-03T02:07:01.922Z,7.80
2023-02-03T02:08:35.120Z,7.80
2023-02-03T02:10:09.279Z,7.80
2023-02-03T02:11:41.987Z,7.70
2023-02-03T02:13:16.549Z,7.90
2023-02-03T02:14:48.447Z,7.80
2023-02-03T02:16:29.792Z,7.90
2023-02-03T02:18:18.035Z,7.80
2023-02-03T02:20:26.037Z,7.80
2023-02-03T02:22:07.722Z,7.80
2023-02-03T02:24:05.044Z,7.90
2023-02-03T02:25:54.953Z,7.80
2023-02-03T02:27:48.252Z,7.90
2023-02-03T02:29:39.490Z,7.90
2023-02-03T02:31:42.621Z,7.90
2023-02-03T02:33:26.441Z,7.90
2023-02-03T02:35:05.681Z,7.80
2023-02-03T02:36:51.233Z,7.90
2023-02-03T02:38:38.480Z,7.90
2023-02-03T02:40:20.696Z,7.90
2023-02-03T02:41:57.513Z,7.90
2023-02-03T02:43:40.469Z,7.90
2023-02-03T02:45:18.536Z,7.90
2023-02-03T02:46:55.298Z,7.90
2023-02-03T02:48:31.923Z,7.90
2023-02-03T02:50:08.177Z,7.90
2023-02-03T02:51:43.763Z,7.90
2023-02-03T02:53:17.058Z,7.80
2023-02-03T02:54:54.583Z,7.90
2023-02-03T02:56:29.491Z,7.90
2023-02-03T02:58:04.820Z,7.80
2023-02-03T02:59:37.530Z,7.80
2023-02-03T03:01:09.934Z,7.90
2023-02-03T03:02:44.020Z,7.80
2023-02-03T03:04:21.324Z,7.80
2023-02-03T03:05:57.016Z,7.80
2023-02-03T03:07:34.939Z,7.80
2023-02-03T03:09:11.531Z,7.90
2023-02-03T03:10:44.891Z,7.90
2023-02-03T03:12:21.910Z,7.90
2023-02-03T03:13:56.468Z,7.80
2023-02-03T03:15:32.942Z,7.90
2023-02-03T03:17:08.401Z,7.90
2023-02-03T03:18:45.933Z,7.90
2023-02-03T03:20:22.515Z,7.90
2023-02-03T03:21:58.553Z,7.90
2023-02-03T03:23:33.397Z,7.90
2023-02-03T03:25:11.667Z,7.90
2023-02-03T03:26:51.559Z,7.90
2023-02-03T03:28:29.005Z,7.90
2023-02-03T03:30:06.239Z,7.90
2023-02-03T03:31:39.978Z,7.90
2023-02-03T03:33:12.995Z,7.80
2023-02-03T03:34:47.339Z,7.90
2023-02-03T03:36:25.809Z,7.90
2023-02-03T03:38:02.688Z,7.90
2023-02-03T03:39:42.709Z,7.90
2023-02-03T03:41:21.492Z,7.90
2023-02-03T03:42:58.375Z,7.90
2023-02-03T03:44:35.293Z,7.90
2023-02-03T03:46:13.574Z,7.90
2023-02-03T03:47:50.816Z,7.90
2023-02-03T03:49:25.573Z,7.80
2023-02-03T03:51:03.473Z,7.90
2023-02-03T03:52:38.221Z,7.80
2023-02-03T03:54:12.991Z,7.80
2023-02-03T03:55:50.512Z,7.80
2023-02-03T03:57:27.582Z,7.80
2023-02-03T03:59:03.155Z,7.80
2023-02-03T04:00:38.418Z,7.80
2023-02-03T04:02:12.044Z,7.90
2023-02-03T04:03:48.222Z,7.80
2023-02-03T04:05:22.171Z,7.80
2023-02-03T04:06:57.036Z,7.80
2023-02-03T04:08:29.742Z,7.80
2023-02-03T04:10:03.374Z,7.80
2023-02-03T04:12:07.994Z,7.80
2023-02-03T04:13:40.662Z,7.80
2023-02-03T04:15:13.414Z,7.80
2023-02-03T04:16:45.133Z,7.80
2023-02-03T04:18:18.243Z,7.90
2023-02-03T04:19:50.925Z,7.80
2023-02-03T04:21:22.797Z,7.90
2023-02-03T04:22:56.819Z,7.90
2023-02-03T04:24:29.519Z,7.90
2023-02-03T04:26:02.476Z,7.90
2023-02-03T04:27:35.583Z,7.90
2023-02-03T04:29:08.450Z,7.90
2023-02-03T04:30:41.232Z,7.90
2023-02-03T04:32:13.943Z,7.90
2023-02-03T04:33:45.673Z,7.90
2023-02-03T04:35:18.713Z,7.80
2023-02-03T04:36:51.493Z,7.90
2023-02-03T04:38:25.545Z,7.80
2023-02-03T04:39:58.570Z,7.80
2023-02-03T04:41:30.325Z,7.80
2023-02-03T04:43:07.656Z,7.80
2023-02-03T04:44:40.366Z,7.80
2023-02-03T04:46:13.232Z,7.80
2023-02-03T04:47:45.982Z,7.80
2023-02-03T04:49:18.677Z,7.80
2023-02-03T04:50:51.394Z,7.80
2023-02-03T04:52:24.129Z,7.80
2023-02-03T04:53:58.147Z,7.80
2023-02-03T04:55:30.077Z,7.80
2023-02-03T04:57:03.079Z,7.80
2023-02-03T04:58:37.192Z,7.80
2023-02-03T05:00:11.354Z,7.80
2023-02-03T05:01:44.103Z,7.80
2023-02-03T05:03:17.054Z,7.80
2023-02-03T05:04:49.777Z,7.80
2023-02-03T05:06:24.572Z,7.80
2023-02-03T05:07:57.298Z,7.80
2023-02-03T05:09:31.345Z,7.80
2023-02-03T05:11:05.766Z,7.80
2023-02-03T05:12:39.301Z,7.80
2023-02-03T05:14:12.009Z,7.80
2023-02-03T05:15:44.700Z,7.70
2023-02-03T05:17:17.402Z,7.80
2023-02-03T05:18:50.128Z,7.80
2023-02-03T05:20:23.213Z,7.80
2023-02-03T05:21:55.933Z,7.80
2023-02-03T05:23:28.757Z,7.80
2023-02-03T05:25:03.095Z,7.80
2023-02-03T05:26:36.243Z,7.80
2023-02-03T05:28:08.963Z,7.80
2023-02-03T05:29:41.693Z,7.80
2023-02-03T05:31:14.481Z,7.80
2023-02-03T05:32:47.248Z,7.70
2023-02-03T05:34:19.949Z,7.80
2023-02-03T05:35:52.762Z,7.80
2023-02-03T05:37:25.512Z,7.80
2023-02-03T05:38:58.202Z,7.80
2023-02-03T05:40:49.962Z,7.70
2023-02-03T05:42:21.671Z,7.80
2023-02-03T05:43:54.335Z,7.80
2023-02-03T05:45:27.162Z,7.70
2023-02-03T05:47:01.484Z,7.80
2023-02-03T05:48:35.012Z,7.70
2023-02-03T05:50:07.068Z,7.70
2023-02-03T05:51:40.318Z,7.70
2023-02-03T05:53:13.188Z,7.70
2023-02-03T05:54:45.874Z,7.70
2023-02-03T05:56:18.974Z,7.80
2023-02-03T05:57:51.658Z,7.80
2023-02-03T05:59:24.380Z,7.70
2023-02-03T06:00:57.114Z,7.80
2023-02-03T06:02:29.784Z,7.80
2023-02-03T06:04:03.276Z,7.90
2023-02-03T06:05:37.728Z,7.90
2023-02-03T06:07:10.476Z,7.80
2023-02-03T06:08:43.406Z,7.80
2023-02-03T06:10:17.076Z,7.80
2023-02-03T06:11:51.103Z,7.80
2023-02-03T06:13:23.803Z,7.80
2023-02-03T06:14:56.498Z,7.80
2023-02-03T06:16:30.141Z,7.80
2023-02-03T06:18:02.881Z,7.80
2023-02-03T06:19:35.560Z,7.80
2023-02-03T06:21:08.446Z,7.80
2023-02-03T06:22:41.137Z,7.80
2023-02-03T06:24:13.920Z,7.80
2023-02-03T06:25:48.531Z,7.80
2023-02-03T06:27:22.565Z,7.80
2023-02-03T06:28:55.484Z,7.90
2023-02-03T06:30:28.515Z,8.00
2023-02-03T06:32:01.543Z,8.10
2023-02-03T06:33:34.566Z,8.20
2023-02-03T06:35:07.783Z,8.20
2023-02-03T06:36:40.485Z,8.30
2023-02-03T06:38:13.180Z,8.40
2023-02-03T06:39:45.885Z,8.50
2023-02-03T06:41:18.577Z,8.60
2023-02-03T06:42:51.681Z,8.60
2023-02-03T06:44:24.456Z,8.60
2023-02-03T06:45:57.216Z,8.70
2023-02-03T06:47:28.988Z,8.70
2023-02-03T06:49:01.723Z,8.70
2023-02-03T06:50:34.522Z,8.80
2023-02-03T06:52:07.221Z,8.80
2023-02-03T06:53:39.962Z,8.80
2023-02-03T06:55:12.746Z,8.80
2023-02-03T06:56:45.600Z,8.70
2023-02-03T06:58:19.659Z,8.70
2023-02-03T06:59:52.373Z,8.60
2023-02-03T07:01:25.856Z,8.60
2023-02-03T07:02:59.626Z,8.60
2023-02-03T07:04:32.362Z,8.50
2023-02-03T07:06:05.450Z,8.50
2023-02-03T07:07:39.322Z,8.40
2023-02-03T07:09:12.119Z,8.50
2023-02-03T07:10:44.787Z,8.40
2023-02-03T07:12:17.548Z,8.40
2023-02-03T07:13:51.593Z,8.40
2023-02-03T07:15:24.286Z,8.40
2023-02-03T07:16:57.141Z,8.40
2023-02-03T07:18:46.261Z,8.40
2023-02-03T07:20:19.597Z,8.30
2023-02-03T07:21:52.314Z,8.30
2023-02-03T07:23:25.080Z,8.30
2023-02-03T07:24:57.779Z,8.30
2023-02-03T07:26:30.692Z,8.30
2023-02-03T07:28:03.487Z,8.30
2023-02-03T07:29:37.536Z,8.30
2023-02-03T07:31:10.985Z,8.30
2023-02-03T07:32:48.078Z,8.30
2023-02-03T07:34:20.789Z,8.30
2023-02-03T07:35:53.713Z,8.20
2023-02-03T07:37:26.494Z,8.20
2023-02-03T07:38:59.304Z,8.20
2023-02-03T07:40:32.002Z,8.20
2023-02-03T07:42:04.877Z,8.20
2023-02-03T07:43:37.835Z,8.10
2023-02-03T07:45:13.355Z,8.20
2023-02-03T07:46:46.085Z,8.20
2023-02-03T07:48:18.797Z,8.20
2023-02-03T07:49:51.483Z,8.30
2023-02-03T07:51:24.176Z,8.20
2023-02-03T07:52:56.865Z,8.20
2023-02-03T07:54:29.708Z,8.20
2023-02-03T07:56:02.604Z,8.20
2023-02-03T07:57:35.345Z,8.20
2023-02-03T07:59:08.052Z,8.20
2023-02-03T08:00:42.073Z,8.30
2023-02-03T08:02:14.729Z,8.30
2023-02-03T08:03:47.433Z,8.20
2023-02-03T08:05:20.358Z,8.20
2023-02-03T08:06:53.058Z,8.20
2023-02-03T08:08:25.751Z,8.30
2023-02-03T08:09:58.456Z,8.30
2023-02-03T08:11:32.467Z,8.30
2023-02-03T08:13:05.324Z,8.20
2023-02-03T08:14:38.027Z,8.30
2023-02-03T08:16:12.137Z,8.30
2023-02-03T08:17:44.882Z,8.20
2023-02-03T08:19:17.601Z,8.20
2023-02-03T08:20:50.603Z,8.20
2023-02-03T08:22:23.297Z,8.20
2023-02-03T08:23:56.464Z,8.20
2023-02-03T08:25:29.158Z,8.20
2023-02-03T08:27:02.193Z,8.20
2023-02-03T08:28:34.880Z,8.20
2023-02-03T08:30:09.639Z,8.20
2023-02-03T08:31:44.167Z,8.30
2023-02-03T08:33:16.918Z,8.30
2023-02-03T08:34:49.769Z,8.30
2023-02-03T08:36:22.479Z,8.30
2023-02-03T08:37:55.503Z,8.30
2023-02-03T08:39:28.364Z,8.40
2023-02-03T08:41:01.084Z,8.30
2023-02-03T08:42:33.910Z,8.40
2023-02-03T08:44:06.599Z,8.40
2023-02-03T08:45:40.718Z,8.40
2023-02-03T08:47:14.821Z,8.40
2023-02-03T08:48:47.514Z,8.50
2023-02-03T08:50:20.341Z,8.50
2023-02-03T08:51:53.364Z,8.50
2023-02-03T08:53:26.686Z,8.50
2023-02-03T08:54:59.442Z,8.60
2023-02-03T08:56:33.970Z,8.60
2023-02-03T08:58:06.688Z,8.60
2023-02-03T08:59:40.474Z,8.60
2023-02-03T09:01:15.325Z,8.60
2023-02-03T09:02:49.424Z,8.70
2023-02-03T09:04:24.581Z,8.70
2023-02-03T09:05:57.383Z,8.70
2023-02-03T09:07:30.367Z,8.80
2023-02-03T09:09:03.197Z,8.80
2023-02-03T09:10:37.222Z,8.80
2023-02-03T09:12:12.230Z,8.80
2023-02-03T09:13:46.036Z,8.80
2023-02-03T09:15:19.001Z,8.80
2023-02-03T09:16:51.744Z,8.80
2023-02-03T09:18:25.998Z,8.80
2023-02-03T09:19:58.720Z,8.90
2023-02-03T09:21:35.522Z,8.80
2023-02-03T09:23:18.384Z,8.80
2023-02-03T09:24:51.488Z,8.90
2023-02-03T09:26:24.243Z,8.90
2023-02-03T09:27:56.999Z,8.80
2023-02-03T09:29:29.853Z,8.90
2023-02-03T09:31:02.978Z,8.90
2023-02-03T09:32:35.766Z,8.90
2023-02-03T09:34:09.956Z,8.80
2023-02-03T09:35:43.167Z,8.90
2023-02-03T09:37:15.892Z,8.90
2023-02-03T09:38:48.629Z,8.90
2023-02-03T09:40:24.567Z,8.90
2023-02-03T09:42:25.206Z,8.90
2023-02-03T09:44:04.930Z,9.00
2023-02-03T09:45:37.712Z,9.10
2023-02-03T09:47:16.048Z,9.10
2023-02-03T09:48:52.787Z,9.10
2023-02-03T09:50:31.053Z,9.10
2023-02-03T09:52:06.592Z,9.00
2023-02-03T09:53:46.417Z,9.10
2023-02-03T09:55:27.535Z,9.10
2023-02-03T09:57:02.269Z,9.10
2023-02-03T09:58:35.620Z,9.10
2023-02-03T10:00:19.513Z,9.10
2023-02-03T10:02:03.309Z,9.00
2023-02-03T10:03:44.516Z,9.10
2023-02-03T10:05:24.328Z,9.10
2023-02-03T10:07:06.936Z,9.20
2023-02-03T10:09:02.461Z,9.20
2023-02-03T10:10:40.356Z,9.10
2023-02-03T10:12:31.888Z,9.20
2023-02-03T10:14:22.280Z,9.20
2023-02-03T10:16:09.954Z,9.10
2023-02-03T10:17:47.905Z,9.10
2023-02-03T10:19:26.375Z,9.20
2023-02-03T10:21:03.422Z,9.20
2023-02-03T10:22:41.304Z,9.20
2023-02-03T10:24:16.802Z,9.30
2023-02-03T10:25:57.155Z,9.30
2023-02-03T10:27:31.002Z,9.40
2023-02-03T10:29:09.033Z,9.30
2023-02-03T10:30:45.811Z,9.30
2023-02-03T10:32:18.687Z,9.30
2023-02-03T10:34:00.238Z,9.30
2023-02-03T10:35:39.848Z,9.30
2023-02-03T10:37:24.035Z,9.30
2023-02-03T10:39:04.686Z,9.30
2023-02-03T10:40:38.263Z,9.30
2023-02-03T10:42:12.682Z,9.30
2023-02-03T10:43:48.461Z,9.30
2023-02-03T10:45:21.972Z,9.40
2023-02-03T10:46:54.772Z,9.40
2023-02-03T10:48:28.145Z,9.40
2023-02-03T10:50:04.747Z,9.40
2023-02-03T10:51:41.374Z,9.40
2023-02-03T10:53:26.330Z,9.40
2023-02-03T10:55:00.977Z,9.40
2023-02-03T10:56:37.895Z,9.50
2023-02-03T10:58:27.608Z,9.50
2023-02-03T11:00:24.826Z,9.50
2023-02-03T11:01:58.172Z,9.50
2023-02-03T11:03:31.599Z,9.50
2023-02-03T11:05:19.374Z,9.50
2023-02-03T11:06:56.985Z,9.50
2023-02-03T11:08:31.812Z,9.60
2023-02-03T11:10:30.395Z,9.60
2023-02-03T11:12:14.080Z,9.60
2023-02-03T11:13:48.651Z,9.60
2023-02-03T11:15:21.349Z,9.60
2023-02-03T11:16:54.049Z,9.60
2023-02-03T11:18:32.841Z,9.60
2023-02-03T11:20:15.401Z,9.50
2023-02-03T11:21:51.225Z,9.60
2023-02-03T11:23:24.165Z,9.50
2023-02-03T11:24:58.309Z,9.60
2023-02-03T11:26:36.831Z,9.50
2023-02-03T11:28:14.031Z,9.60
2023-02-03T11:29:50.078Z,9.60
2023-02-03T11:31:25.785Z,9.60
2023-02-03T11:33:02.177Z,9.60
2023-02-03T11:34:37.898Z,9.60
2023-02-03T11:36:11.970Z,9.70
2023-02-03T11:37:46.529Z,9.70
2023-02-03T11:39:24.937Z,9.70
2023-02-03T11:41:01.268Z,9.70
2023-02-03T11:42:36.886Z,9.80
2023-02-03T11:44:17.142Z,9.80
2023-02-03T11:45:53.072Z,9.80
2023-02-03T11:47:25.867Z,9.70
2023-02-03T11:49:09.749Z,9.80
2023-02-03T11:50:48.017Z,9.90
2023-02-03T11:52:46.842Z,9.80
2023-02-03T11:54:30.553Z,9.80
2023-02-03T11:56:18.129Z,9.80
2023-02-03T11:58:01.727Z,9.80
2023-02-03T12:00:04.110Z,9.80
2023-02-03T12:01:59.272Z,9.80
2023-02-03T12:03:47.973Z,9.80
2023-02-03T12:05:30.997Z,9.80
2023-02-03T12:07:30.514Z,9.80
2023-02-03T12:09:13.502Z,9.80
2023-02-03T12:11:00.588Z,9.90
2023-02-03T12:12:52.058Z,9.90
2023-02-03T12:14:40.342Z,9.90
2023-02-03T12:16:29.252Z,9.90
2023-02-03T12:18:11.731Z,9.90
2023-02-03T12:19:57.066Z,9.90
2023-02-03T12:21:40.536Z,10.00
2023-02-03T12:23:23.900Z,10.00
2023-02-03T12:25:04.364Z,10.00
2023-02-03T12:26:46.108Z,10.10
2023-02-03T12:28:36.301Z,10.10
2023-02-03T12:30:16.545Z,10.10
2023-02-03T12:32:03.278Z,10.10
2023-02-03T12:33:43.317Z,10.10
2023-02-03T12:35:19.481Z,10.10
2023-02-03T12:36:59.923Z,10.10
2023-02-03T12:38:38.752Z,10.10
2023-02-03T12:40:16.840Z,10.10
2023-02-03T12:41:56.053Z,10.20
2023-02-03T12:43:37.415Z,10.10
2023-02-03T12:45:15.417Z,10.20
2023-02-03T12:46:54.574Z,10.20
2023-02-03T12:48:32.597Z,10.20
2023-02-03T12:50:08.585Z,10.20
2023-02-03T12:51:44.920Z,10.20
2023-02-03T12:53:22.322Z,10.20
2023-02-03T12:55:02.145Z,10.30
2023-02-03T12:56:40.068Z,10.30
2023-02-03T12:58:20.483Z,10.30
2023-02-03T13:00:10.640Z,10.30
2023-02-03T13:01:49.243Z,10.30
2023-02-03T13:03:30.143Z,10.20
2023-02-03T13:05:09.233Z,10.20
2023-02-03T13:06:50.663Z,10.20
2023-02-03T13:08:32.849Z,10.20
2023-02-03T13:10:15.733Z,10.20
2023-02-03T13:11:54.934Z,10.20
2023-02-03T13:13:35.809Z,10.20
2023-02-03T13:15:23.248Z,10.20
2023-02-03T13:17:04.039Z,10.20
2023-02-03T13:18:40.642Z,10.20
2023-02-03T13:20:19.734Z,10.20
2023-02-03T13:21:52.845Z,10.20
2023-02-03T13:23:26.497Z,10.20
2023-02-03T13:25:07.002Z,10.20
2023-02-03T13:26:54.506Z,10.20
2023-02-03T13:28:40.910Z,10.20
2023-02-03T13:30:34.419Z,10.20
2023-02-03T13:32:20.017Z,10.30
2023-02-03T13:34:28.079Z,10.30
2023-02-03T13:36:14.842Z,10.20
2023-02-03T13:38:07.154Z,10.20
2023-02-03T13:39:53.661Z,10.20
2023-02-03T13:41:33.233Z,10.20
2023-02-03T13:43:12.110Z,10.20
2023-02-03T13:44:46.654Z,10.20
2023-02-03T13:46:25.003Z,10.20
2023-02-03T13:48:09.433Z,10.20
2023-02-03T13:49:46.300Z,10.20
2023-02-03T13:51:22.789Z,10.20
2023-02-03T13:53:00.154Z,10.20
2023-02-03T13:54:36.829Z,10.20
2023-02-03T13:56:17.550Z,10.20
2023-02-03T13:57:53.012Z,10.20
2023-02-03T13:59:41.737Z,10.20
2023-02-03T14:01:34.268Z,10.20
2023-02-03T14:03:17.302Z,10.20
2023-02-03T14:04:55.028Z,10.20
2023-02-03T14:07:02.046Z,10.10
2023-02-03T14:08:53.365Z,10.10
2023-02-03T14:10:26.195Z,10.10
2023-02-03T14:12:18.289Z,10.10
2023-02-03T14:13:52.337Z,10.10
2023-02-03T14:15:33.982Z,10.10
2023-02-03T14:17:40.159Z,10.10
2023-02-03T14:19:34.885Z,10.10
2023-02-03T14:21:16.816Z,10.10
2023-02-03T14:22:51.383Z,10.10
2023-02-03T14:24:32.474Z,10.10
2023-02-03T14:26:05.539Z,10.00
2023-02-03T14:27:38.422Z,10.00
2023-02-03T14:29:24.399Z,10.00
2023-02-03T14:31:10.774Z,10.00
2023-02-03T14:32:51.056Z,10.00
2023-02-03T14:34:42.246Z,10.00
2023-02-03T14:36:37.905Z,9.90
2023-02-03T14:38:12.945Z,9.90
2023-02-03T14:40:06.545Z,9.90
2023-02-03T14:41:51.137Z,9.90
2023-02-03T14:43:35.939Z,10.00
2023-02-03T14:45:22.410Z,9.90
2023-02-03T14:47:05.721Z,9.90
2023-02-03T14:48:52.754Z,10.00
2023-02-03T14:50:38.059Z,9.90
2023-02-03T14:52:28.401Z,9.90
2023-02-03T14:54:16.906Z,9.90
2023-02-03T14:55:59.403Z,9.90
2023-02-03T14:57:43.382Z,9.80
2023-02-03T14:59:16.834Z,9.80
2023-02-03T15:00:52.402Z,9.80
2023-02-03T15:02:27.810Z,9.80
2023-02-03T15:04:22.990Z,9.80
2023-02-03T15:05:58.414Z,9.80
2023-02-03T15:07:44.641Z,9.70
2023-02-03T15:09:25.515Z,9.70
2023-02-03T15:10:58.338Z,9.70
2023-02-03T15:12:37.763Z,9.70
2023-02-03T15:14:21.234Z,9.70
2023-02-03T15:15:56.102Z,9.70
2023-02-03T15:17:30.541Z,9.70
2023-02-03T15:19:08.833Z,9.70
2023-02-03T15:20:42.154Z,9.70
2023-02-03T15:22:23.592Z,9.70
2023-02-03T15:23:57.659Z,9.70
2023-02-03T15:25:32.948Z,9.70
2023-02-03T15:27:05.694Z,9.70
2023-02-03T15:28:38.393Z,9.80
2023-02-03T15:30:18.787Z,9.80
2023-02-03T15:31:58.174Z,9.70
2023-02-03T15:33:32.783Z,9.70
2023-02-03T15:35:10.949Z,9.70
2023-02-03T15:36:48.282Z,9.60
2023-02-03T15:38:26.405Z,9.60
2023-02-03T15:40:04.494Z,9.60
2023-02-03T15:41:37.757Z,9.60
2023-02-03T15:43:15.022Z,9.60
2023-02-03T15:44:55.164Z,9.60
2023-02-03T15:46:33.214Z,9.60
2023-02-03T15:48:13.101Z,9.60
2023-02-03T15:49:47.133Z,9.60
2023-02-03T15:51:24.230Z,9.60
2023-02-03T15:53:01.172Z,9.60
2023-02-03T15:54:40.953Z,9.60
2023-02-03T15:56:22.907Z,9.60
2023-02-03T15:57:55.720Z,9.60
2023-02-03T15:59:35.380Z,9.60
2023-02-03T16:01:16.979Z,9.60
2023-02-03T16:02:50.867Z,9.60
2023-02-03T16:04:25.325Z,9.60
2023-02-03T16:05:59.572Z,9.60
2023-02-03T16:07:32.498Z,9.50
2023-02-03T16:09:07.346Z,9.60
2023-02-03T16:10:40.069Z,9.60
2023-02-03T16:12:23.055Z,9.60
2023-02-03T16:13:56.620Z,9.60
2023-02-03T16:15:29.552Z,9.60
2023-02-03T16:17:05.832Z,9.50
2023-02-03T16:18:39.096Z,9.60
2023-02-03T16:20:24.415Z,9.50
2023-02-03T16:21:59.718Z,9.60
2023-02-03T16:23:32.884Z,9.60
2023-02-03T16:25:16.549Z,9.60
2023-02-03T16:26:49.255Z,9.60
2023-02-03T16:28:40.971Z,9.50
2023-02-03T16:30:40.883Z,9.50
2023-02-03T16:32:37.430Z,9.50
2023-02-03T16:34:33.583Z,9.50
2023-02-03T16:36:30.854Z,9.50
2023-02-03T16:38:24.792Z,9.50
2023-02-03T16:40:15.456Z,9.50
2023-02-03T16:42:06.349Z,9.50
2023-02-03T16:43:58.218Z,9.50
2023-02-03T16:45:48.961Z,9.50
2023-02-03T16:47:43.972Z,9.50
2023-02-03T16:49:34.429Z,9.50
2023-02-03T16:51:15.771Z,9.50
2023-02-03T16:52:48.487Z,9.50
2023-02-03T16:54:21.205Z,9.50
2023-02-03T16:55:55.694Z,9.50
2023-02-03T16:57:28.386Z,9.50
2023-02-03T16:59:02.421Z,9.50
2023-02-03T17:00:35.327Z,9.60
2023-02-03T17:02:08.188Z,9.50
2023-02-03T17:03:40.908Z,9.50
2023-02-03T17:05:13.602Z,9.50
2023-02-03T17:06:50.951Z,9.50
2023-02-03T17:08:25.786Z,9.50
2023-02-03T17:09:58.475Z,9.50
2023-02-03T17:11:31.210Z,9.50
2023-02-03T17:13:04.816Z,9.50
2023-02-03T17:14:38.881Z,9.50
2023-02-03T17:16:14.020Z,9.50
2023-02-03T17:17:46.934Z,9.50
2023-02-03T17:19:19.645Z,9.50
2023-02-03T17:20:52.403Z,9.50
2023-02-03T17:22:25.110Z,9.50
2023-02-03T17:23:59.222Z,9.60
2023-02-03T17:25:35.762Z,9.50
2023-02-03T17:27:08.575Z,9.50
2023-02-03T17:28:42.997Z,9.50
2023-02-03T17:30:17.503Z,9.40
2023-02-03T17:31:50.202Z,9.50
2023-02-03T17:33:22.949Z,9.50
2023-02-03T17:34:55.731Z,9.40
2023-02-03T17:36:28.422Z,9.40
2023-02-03T17:38:00.229Z,9.40
2023-02-03T17:54:19.613Z,9.40
2023-02-03T17:55:52.332Z,9.40
2023-02-03T17:57:25.046Z,9.40
2023-02-03T17:58:58.793Z,9.40
2023-02-03T18:00:31.794Z,9.50
2023-02-03T18:02:06.148Z,9.50
2023-02-03T18:03:38.910Z,9.40
2023-02-03T18:05:11.718Z,9.50
2023-02-03T18:06:46.200Z,9.50
2023-02-03T18:08:20.592Z,9.40
2023-02-03T18:09:57.019Z,9.50
2023-02-03T18:11:31.012Z,9.50
2023-02-03T18:13:04.656Z,9.50
2023-02-03T18:14:37.337Z,9.50
2023-02-03T18:16:15.010Z,9.50
2023-02-03T18:17:49.024Z,9.50
2023-02-03T18:19:21.709Z,9.50
2023-02-03T18:20:54.389Z,9.50
2023-02-03T18:22:27.207Z,9.50
2023-02-03T18:24:01.690Z,9.50
2023-02-03T18:25:36.474Z,9.50
2023-02-03T18:27:09.154Z,9.50
2023-02-03T18:28:42.375Z,9.50
2023-02-03T18:30:18.154Z,9.50
2023-02-03T18:31:51.070Z,9.50
2023-02-03T18:33:25.114Z,9.50
2023-02-03T18:34:57.781Z,9.50
2023-02-03T18:36:30.513Z,9.50
2023-02-03T18:38:03.785Z,9.50
2023-02-03T18:39:36.522Z,9.50
2023-02-03T18:41:12.041Z,9.50
2023-02-03T18:42:44.777Z,9.50
2023-02-03T18:44:17.446Z,9.50
2023-02-03T18:45:50.430Z,9.50
2023-02-03T18:47:23.215Z,9.50
2023-02-03T18:48:57.613Z,9.50
2023-02-03T18:50:30.674Z,9.50
2023-02-03T18:52:04.262Z,9.50
2023-02-03T18:53:38.133Z,9.50
2023-02-03T18:55:10.944Z,9.50
2023-02-03T18:56:43.648Z,9.50
2023-02-03T18:58:17.112Z,9.50
2023-02-03T18:59:49.858Z,9.50
2023-02-03T19:01:25.087Z,9.50
2023-02-03T19:02:58.097Z,9.50
2023-02-03T19:04:32.358Z,9.40
2023-02-03T19:06:10.417Z,9.40
2023-02-03T19:07:43.351Z,9.40
2023-02-03T19:09:17.855Z,9.40
2023-02-03T19:10:53.101Z,9.40
2023-02-03T19:12:27.489Z,9.30
2023-02-03T19:14:00.185Z,9.30
2023-02-03T19:15:32.894Z,9.30
2023-02-03T19:17:05.839Z,9.30
2023-02-03T19:18:38.534Z,9.30
2023-02-03T19:20:14.070Z,9.20
2023-02-03T19:21:48.504Z,9.20
2023-02-03T19:23:23.742Z,9.20
2023-02-03T19:24:56.726Z,9.20
2023-02-03T19:26:29.469Z,9.20
2023-02-03T19:28:03.064Z,9.20
2023-02-03T19:29:35.790Z,9.20
2023-02-03T19:31:10.011Z,9.20
2023-02-03T19:32:42.807Z,9.10
2023-02-03T19:34:18.040Z,9.10
2023-02-03T19:35:52.699Z,9.10
2023-02-03T19:37:25.412Z,9.10
2023-02-03T19:38:58.322Z,9.10
2023-02-03T19:40:31.628Z,9.00
2023-02-03T19:42:04.822Z,9.00
2023-02-03T19:43:37.576Z,9.00
2023-02-03T19:45:10.990Z,9.00
2023-02-03T19:46:43.819Z,9.00
2023-02-03T19:48:16.635Z,9.00
2023-02-03T19:49:49.520Z,9.00
2023-02-03T19:51:24.209Z,8.90
2023-02-03T19:52:56.968Z,8.90
2023-02-03T19:54:29.896Z,8.90
2023-02-03T19:56:02.670Z,8.90
2023-02-03T19:57:35.418Z,8.90
2023-02-03T19:59:08.575Z,8.80
2023-02-03T20:00:41.715Z,8.90
2023-02-03T20:02:15.849Z,8.80
2023-02-03T20:03:48.602Z,8.80
2023-02-03T20:05:22.027Z,8.80
2023-02-03T20:06:56.028Z,8.80
2023-02-03T20:08:28.778Z,8.80
2023-02-03T20:10:01.882Z,8.70
2023-02-03T20:11:34.680Z,8.70
2023-02-03T20:13:07.377Z,8.70
2023-02-03T20:14:40.064Z,8.70
2023-02-03T20:16:12.824Z,8.70
2023-02-03T20:17:45.560Z,8.70
2023-02-03T20:19:18.682Z,8.70
2023-02-03T20:20:51.658Z,8.60
2023-02-03T20:22:25.740Z,8.60
2023-02-03T20:23:58.439Z,8.60
2023-02-03T20:25:31.212Z,8.60
2023-02-03T20:27:04.056Z,8.60
2023-02-03T20:28:36.797Z,8.60
2023-02-03T20:30:10.894Z,8.60
2023-02-03T20:31:43.717Z,8.60
2023-02-03T20:33:16.409Z,8.60
2023-02-03T20:34:49.101Z,8.60
2023-02-03T20:36:21.834Z,8.60
2023-02-03T20:37:55.950Z,8.60
2023-02-03T20:39:28.992Z,8.60
2023-02-03T20:41:01.685Z,8.60
2023-02-03T20:42:35.146Z,8.60
2023-02-03T20:44:12.902Z,8.60
2023-02-03T20:45:46.508Z,8.60
2023-02-03T20:47:21.219Z,8.60
2023-02-03T20:48:54.183Z,8.50
2023-02-03T20:50:40.607Z,8.50
2023-02-03T20:52:15.877Z,8.50
2023-02-03T20:53:51.390Z,8.50
2023-02-03T20:55:24.519Z,8.50
2023-02-03T20:56:57.398Z,8.50
2023-02-03T20:58:32.998Z,8.50
2023-02-03T21:00:14.672Z,8.50
2023-02-03T21:01:48.617Z,8.50
2023-02-03T21:03:38.997Z,8.50
2023-02-03T21:05:23.758Z,8.50
2023-02-03T21:06:56.450Z,8.50
2023-02-03T21:08:29.223Z,8.50
2023-02-03T21:10:18.101Z,8.50
2023-02-03T21:11:52.904Z,8.50
2023-02-03T21:13:27.622Z,8.50
2023-02-03T21:15:00.349Z,8.50
2023-02-03T21:16:39.115Z,8.50
2023-02-03T21:18:39.236Z,8.50
2023-02-03T21:20:24.726Z,8.50
2023-02-03T21:21:57.728Z,8.50
2023-02-03T21:23:39.725Z,8.50
2023-02-03T21:25:26.915Z,8.50
2023-02-03T21:27:01.357Z,8.50
2023-02-03T21:28:34.046Z,8.50
2023-02-03T21:30:28.021Z,8.50
2023-02-03T21:32:01.224Z,8.60
2023-02-03T21:33:40.512Z,8.60
2023-02-03T21:35:24.248Z,8.60
2023-02-03T21:36:57.373Z,8.60